Williamsburg, PA (16693)

11:00 AM EDT on June 23, 2017 (GMT -0400)
Canoe Valley | | Change Station

Elev 1155 ft 40.53 °N, 78.18 °W | Updated 11 seconds ago

Overcast
Overcast
71.3 °F
Feels Like 71.3 °F
N
0.0
Wind Variable Wind from SSW
Gusts 2.0 mph

Today
High -- | Low -- °F
--% Chance of Precip.
Yesterday
High -- | Low -- °F
Precip. -- in
Pressure 29.77 in
Visibility 6.0 miles
Clouds Scattered Clouds 2200 ft
Mostly Cloudy 2700 ft
Overcast 5500 ft
Dew Point 71 °F
Humidity 98%
Rainfall 0.30 in
Snow Depth Not available.
5:43 AM 8:47 PM
Waning Crescent, 0% visible
METAR KAOO 231453Z AUTO 23009KT 6SM -RA BR SCT022 BKN027 OVC055 23/22 A2980 RMK AO2 RAE04B51 SLP080 P0000 60015 T02280217 58010
Pressure 29.77 in
Visibility 6.0 miles
Clouds Scattered Clouds 2200 ft
Mostly Cloudy 2700 ft
Overcast 5500 ft
Dew Point 71 °F
Humidity 98%
Rainfall 0.30 in
Snow Depth Not available.
5:43 AM 8:47 PM
Waning Crescent, 0% visible
METAR KAOO 231453Z AUTO 23009KT 6SM -RA BR SCT022 BKN027 OVC055 23/22 A2980 RMK AO2 RAE04B51 SLP080 P0000 60015 T02280217 58010

Get Severe Weather Alerts

Thanks for signing up!

Be on the lookout for a verification email in your inbox.

You'll start receiving the daily forecast at 6 AM.

×

10-Day Weather Forecast

Almanac

Astronomy

Jun. 23, 2017 Rise Set
Actual Time
Civil Twilight
Nautical Twilight
Astronomical Twilight
Moon
Length of Visible Light
Length of Day
Tomorrow will be .
, % of the Moon is Illuminated

Today's Extremes

State Highs State Lows

Community

WunderPhotos

Category 6

Welcome to Category 6. This is the collective home for Weather Underground's featured writeups by Dr. Jeff Masters (right), Bob Henson (left), Chris Burt, and other regular contributors.

Nearby

Air Quality

  Air Quality AQ Index Pollutant
Not available.

Snow Depth

Station Depth Elevation

Earthquake Activity

City Distance Mag. Time & Date
Minimum magnitude displayed is 2.5.

Coastal Water Temperatures

Place Temperature

Stations

Nearby Weather Stations

Station Location Temp. Windchill Dew Point Humidity Wind Precip. Elev Updated Type
                   

Watches & Warnings

There are currently no watches in effect.